Anderson Dam, Idaho
Current Conditions -  °F | °C
As of 4:58 AM on Saturday 25 Oct 2014 (Local Time) from KMUO Reporting Station
Clear Clear  
Wind Chill:   Ceiling: Unl
Heat Index:   Visibility: 10mi
Dew Point:   Wind: 10mph
Humidity: 100%   Direction: 110°ESE
Pressure: 29.87"   Gusts: NA
Location:  43.2609°N, 115.781°W
Report Text: KMUO 251058Z AUTO 11009KT 10SM CLR 07/07 A2987 RMK AO2 DZE1055 SLP106 P0000 T00650065
Loading
Personal Weather Stations






























Interactive Weather Map
Tropical Storm Tracking
New forecast layout! Learn more

10-Day Weather Forecast

Advertisements
Track Severe Weather on mobile